createdAt,value
2018-04-25T00:00:42.112Z,15.99
2018-04-25T00:03:13.147Z,15.95
2018-04-25T00:05:44.189Z,15.90
2018-04-25T00:08:15.217Z,15.88
2018-04-25T00:10:46.250Z,15.87
2018-04-25T00:13:17.267Z,15.84
2018-04-25T00:15:48.303Z,15.85
2018-04-25T00:18:19.298Z,15.84
2018-04-25T00:20:50.406Z,15.83
2018-04-25T00:23:21.401Z,15.83
2018-04-25T00:25:52.434Z,15.82
2018-04-25T00:28:23.431Z,15.81
2018-04-25T00:30:54.414Z,15.75
2018-04-25T00:33:25.422Z,15.70
2018-04-25T00:35:56.464Z,15.64
2018-04-25T00:38:27.435Z,15.59
2018-04-25T00:40:58.452Z,15.53
2018-04-25T00:43:29.483Z,15.48
2018-04-25T00:46:00.517Z,15.44
2018-04-25T00:48:31.583Z,15.40
2018-04-25T00:51:02.581Z,15.38
2018-04-25T00:53:33.652Z,15.33
2018-04-25T00:56:04.675Z,15.29
2018-04-25T00:58:35.690Z,15.24
2018-04-25T01:01:06.668Z,15.18
2018-04-25T01:03:37.744Z,15.14
2018-04-25T01:06:08.752Z,15.09
2018-04-25T01:08:39.747Z,15.06
2018-04-25T01:11:10.786Z,15.01
2018-04-25T01:13:41.819Z,15.00
2018-04-25T01:16:12.844Z,14.99
2018-04-25T01:18:43.851Z,14.97
2018-04-25T01:21:15.024Z,14.95
2018-04-25T01:23:46.071Z,14.94
2018-04-25T01:26:17.149Z,14.93
2018-04-25T01:28:48.174Z,14.92
2018-04-25T01:31:24.066Z,14.88
2018-04-25T01:33:57.882Z,14.82
2018-04-25T01:36:44.792Z,14.78
2018-04-25T01:39:19.715Z,14.70
2018-04-25T01:41:50.796Z,14.63
2018-04-25T01:44:26.774Z,14.61
2018-04-25T01:47:00.669Z,14.62
2018-04-25T01:49:36.724Z,14.63
2018-04-25T01:52:19.894Z,14.62
2018-04-25T01:55:03.197Z,14.62
2018-04-25T01:57:46.499Z,14.63
2018-04-25T02:00:29.844Z,14.74
2018-04-25T02:03:00.642Z,14.84
2018-04-25T02:05:31.603Z,14.96
2018-04-25T02:08:02.593Z,15.06
2018-04-25T02:10:33.581Z,15.19
2018-04-25T02:13:04.559Z,15.31
2018-04-25T02:15:35.527Z,15.42
2018-04-25T02:18:06.536Z,15.44
2018-04-25T02:20:37.576Z,15.42
2018-04-25T02:23:08.548Z,15.32
2018-04-25T02:25:39.553Z,15.14
2018-04-25T02:28:10.568Z,14.98
2018-04-25T02:30:41.612Z,14.87
2018-04-25T02:33:12.624Z,14.74
2018-04-25T02:35:43.744Z,14.64
2018-04-25T02:38:14.728Z,14.54
2018-04-25T02:40:45.725Z,14.47
2018-04-25T02:43:16.776Z,14.41
2018-04-25T02:45:47.788Z,14.39
2018-04-25T02:48:18.811Z,14.37
2018-04-25T02:50:49.828Z,14.35
2018-04-25T02:53:20.852Z,14.33
2018-04-25T02:55:51.810Z,14.29
2018-04-25T02:58:22.807Z,14.23
2018-04-25T03:00:53.820Z,14.18
2018-04-25T03:03:24.832Z,14.15
2018-04-25T03:05:55.826Z,14.16
2018-04-25T03:08:26.778Z,14.20
2018-04-25T03:10:57.773Z,14.31
2018-04-25T03:13:28.783Z,14.48
2018-04-25T03:15:59.770Z,14.64
2018-04-25T03:18:30.765Z,14.82
2018-04-25T03:21:01.772Z,14.99
2018-04-25T03:23:32.771Z,15.08
2018-04-25T03:26:03.788Z,15.11
2018-04-25T03:28:41.759Z,15.09
2018-04-25T03:31:12.729Z,15.04
2018-04-25T03:33:43.712Z,15.01
2018-04-25T03:36:14.705Z,14.95
2018-04-25T03:38:45.696Z,14.83
2018-04-25T03:41:16.720Z,14.69
2018-04-25T03:43:47.760Z,14.54
2018-04-25T03:46:18.767Z,14.43
2018-04-25T03:48:49.771Z,14.34
2018-04-25T03:51:20.753Z,14.27
2018-04-25T03:53:51.796Z,14.21
2018-04-25T03:56:22.827Z,14.18
2018-04-25T03:58:53.840Z,14.12
2018-04-25T04:01:24.834Z,14.09
2018-04-25T04:03:55.793Z,14.04
2018-04-25T04:06:26.806Z,13.96
2018-04-25T04:08:57.811Z,13.91
2018-04-25T04:11:28.939Z,13.85
2018-04-25T04:13:59.941Z,13.83
2018-04-25T04:16:30.949Z,13.81
2018-04-25T04:19:01.928Z,13.79
2018-04-25T04:21:32.910Z,13.81
2018-04-25T04:24:03.938Z,13.85
2018-04-25T04:26:34.976Z,13.92
2018-04-25T04:29:06.970Z,13.97
2018-04-25T04:31:37.977Z,14.04
2018-04-25T04:34:09.020Z,14.11
2018-04-25T04:36:40.059Z,14.14
2018-04-25T04:39:11.070Z,14.18
2018-04-25T04:41:42.053Z,14.25
2018-04-25T04:44:13.053Z,14.30
2018-04-25T04:46:44.062Z,14.38
2018-04-25T04:49:15.045Z,14.45
2018-04-25T04:51:46.003Z,14.51
2018-04-25T04:54:16.999Z,14.59
2018-04-25T04:56:48.018Z,14.69
2018-04-25T04:59:19.060Z,14.77
2018-04-25T05:01:50.099Z,14.86
2018-04-25T05:04:21.098Z,14.93
2018-04-25T05:06:52.148Z,15.01
2018-04-25T05:09:23.162Z,15.09
2018-04-25T05:11:54.164Z,15.22
2018-04-25T05:14:25.137Z,15.30
2018-04-25T05:16:56.149Z,15.31
2018-04-25T05:19:27.147Z,15.37
2018-04-25T05:21:58.198Z,15.44
2018-04-25T05:24:29.295Z,15.55
2018-04-25T05:27:00.258Z,15.65
2018-04-25T05:29:31.312Z,15.75
2018-04-25T05:32:02.337Z,15.81
2018-04-25T05:34:33.315Z,15.91
2018-04-25T05:37:04.326Z,16.03
2018-04-25T05:39:35.349Z,16.12
2018-04-25T05:42:06.335Z,16.26
2018-04-25T05:44:37.351Z,16.35
2018-04-25T05:47:08.365Z,16.52
2018-04-25T05:49:39.386Z,16.67
2018-04-25T05:52:10.433Z,16.81
2018-04-25T05:54:41.433Z,16.89
2018-04-25T05:57:12.429Z,17.00
2018-04-25T05:59:43.465Z,17.20
2018-04-25T06:02:14.482Z,17.36
2018-04-25T06:04:45.516Z,17.52
2018-04-25T06:07:16.558Z,17.69
2018-04-25T06:09:47.530Z,17.79
2018-04-25T06:12:18.555Z,17.92
2018-04-25T06:14:49.524Z,18.01
2018-04-25T06:17:20.599Z,18.21
2018-04-25T06:19:51.602Z,18.49
2018-04-25T06:22:22.612Z,18.68
2018-04-25T06:24:53.564Z,18.87
2018-04-25T06:27:24.559Z,19.30
2018-04-25T06:29:55.567Z,21.90
2018-04-25T06:32:26.608Z,27.99
2018-04-25T06:35:04.752Z,33.00
2018-04-25T06:37:35.785Z,35.58
2018-04-25T06:40:06.804Z,36.72
2018-04-25T06:42:37.807Z,38.44
2018-04-25T06:45:08.841Z,39.67
2018-04-25T06:47:39.875Z,40.63
2018-04-25T06:50:10.918Z,40.99
2018-04-25T06:52:41.906Z,41.56
2018-04-25T06:55:12.971Z,41.27
2018-04-25T06:57:43.980Z,41.87
2018-04-25T07:00:14.979Z,43.01
2018-04-25T07:02:45.963Z,44.12
2018-04-25T07:05:16.996Z,45.36
2018-04-25T07:07:48.065Z,46.28
2018-04-25T07:10:19.142Z,46.41
2018-04-25T07:12:50.153Z,46.70
2018-04-25T07:15:21.134Z,47.14
2018-04-25T07:17:52.172Z,47.52
2018-04-25T07:20:23.157Z,48.10
2018-04-25T07:22:54.182Z,48.44
2018-04-25T07:25:25.170Z,49.51
2018-04-25T07:27:56.161Z,50.24
2018-04-25T07:30:27.200Z,51.39
2018-04-25T07:32:58.178Z,51.41
2018-04-25T07:35:29.263Z,51.28
2018-04-25T07:38:00.305Z,52.09
2018-04-25T07:40:31.370Z,49.95
2018-04-25T07:43:02.446Z,45.67
2018-04-25T07:45:33.481Z,43.79
2018-04-25T07:48:04.528Z,41.99
2018-04-25T07:50:35.533Z,39.97
2018-04-25T07:53:06.550Z,39.36
2018-04-25T07:55:37.549Z,39.94
2018-04-25T07:58:08.581Z,40.33
2018-04-25T08:00:39.622Z,39.58
2018-04-25T08:03:10.635Z,39.41
2018-04-25T08:05:41.599Z,42.44
2018-04-25T08:08:12.617Z,46.54
2018-04-25T08:10:43.592Z,49.41
2018-04-25T08:13:26.850Z,51.43
2018-04-25T08:16:10.016Z,52.82
2018-04-25T08:18:51.155Z,53.19
2018-04-25T08:21:34.448Z,50.61
2018-04-25T08:24:05.560Z,47.62
2018-04-25T08:26:36.572Z,44.08
2018-04-25T08:29:07.576Z,41.78
2018-04-25T08:31:38.584Z,41.23
2018-04-25T08:34:09.678Z,42.76
2018-04-25T08:36:40.733Z,46.22
2018-04-25T08:39:11.784Z,48.57
2018-04-25T08:41:42.778Z,49.24
2018-04-25T08:44:13.792Z,48.88
2018-04-25T08:46:44.795Z,49.44
2018-04-25T08:49:15.802Z,48.14
2018-04-25T08:51:46.853Z,48.56
2018-04-25T08:54:17.827Z,50.05
2018-04-25T08:56:48.904Z,51.06
2018-04-25T08:59:19.939Z,50.77
2018-04-25T09:01:50.939Z,49.08
2018-04-25T09:04:21.911Z,45.46
2018-04-25T09:06:52.897Z,44.33
2018-04-25T09:09:23.914Z,41.33
2018-04-25T09:11:54.943Z,40.94
2018-04-25T09:14:25.913Z,43.68
2018-04-25T09:16:56.921Z,45.90
2018-04-25T09:19:27.971Z,48.39
2018-04-25T09:21:59.026Z,49.11
2018-04-25T09:24:30.096Z,49.46
2018-04-25T09:27:01.120Z,50.04
2018-04-25T09:29:32.125Z,49.39
2018-04-25T09:32:03.141Z,49.91
2018-04-25T09:34:34.149Z,50.10
2018-04-25T09:37:05.156Z,49.94
2018-04-25T09:39:36.196Z,50.33
2018-04-25T09:42:07.198Z,51.51
2018-04-25T09:44:38.213Z,49.31
2018-04-25T09:47:09.316Z,48.32
2018-04-25T09:49:40.391Z,45.47
2018-04-25T09:52:11.427Z,44.15
2018-04-25T09:54:42.466Z,43.64
2018-04-25T09:57:13.478Z,43.36
2018-04-25T09:59:44.488Z,43.73
2018-04-25T10:02:21.572Z,44.48
2018-04-25T10:04:52.646Z,45.84
2018-04-25T10:07:23.605Z,47.21
2018-04-25T10:09:54.641Z,48.77
2018-04-25T10:12:25.663Z,49.35
2018-04-25T10:14:56.673Z,48.49
2018-04-25T10:17:27.683Z,47.25
2018-04-25T10:19:58.717Z,45.25
2018-04-25T10:22:29.774Z,43.27
2018-04-25T10:25:00.766Z,42.45
2018-04-25T10:27:31.811Z,42.92
2018-04-25T10:30:02.847Z,43.53
2018-04-25T10:32:33.847Z,44.77
2018-04-25T10:35:04.930Z,45.05
2018-04-25T10:37:35.969Z,45.09
2018-04-25T10:40:07.044Z,45.71
2018-04-25T10:42:38.010Z,46.25
2018-04-25T10:45:09.074Z,46.99
2018-04-25T10:47:40.062Z,47.04
2018-04-25T10:50:11.052Z,46.90
2018-04-25T10:52:42.067Z,47.05
2018-04-25T10:55:13.123Z,44.97
2018-04-25T10:57:44.094Z,42.76
2018-04-25T11:00:15.146Z,40.64
2018-04-25T11:02:46.217Z,38.75
2018-04-25T11:05:17.267Z,37.03
2018-04-25T11:07:48.286Z,35.64
2018-04-25T11:10:19.315Z,34.51
2018-04-25T11:12:50.425Z,33.95
2018-04-25T11:15:21.489Z,33.27
2018-04-25T11:17:52.531Z,32.70
2018-04-25T11:20:23.620Z,31.62
2018-04-25T11:22:54.533Z,31.42
2018-04-25T11:25:25.573Z,31.80
2018-04-25T11:27:56.618Z,31.35
2018-04-25T11:30:28.141Z,30.91
2018-04-25T11:32:59.177Z,30.94
2018-04-25T11:35:30.209Z,31.15
2018-04-25T11:38:01.187Z,31.65
2018-04-25T11:40:32.258Z,32.53
2018-04-25T11:43:03.288Z,32.26
2018-04-25T11:45:34.340Z,31.98
2018-04-25T11:48:05.347Z,31.70
2018-04-25T11:50:36.334Z,31.66
2018-04-25T11:53:07.301Z,31.57
2018-04-25T11:55:38.313Z,31.21
2018-04-25T11:58:09.323Z,30.69
2018-04-25T12:00:40.368Z,30.46
2018-04-25T12:03:11.409Z,30.34
2018-04-25T12:05:42.416Z,30.26
2018-04-25T12:08:13.425Z,30.21
2018-04-25T12:10:44.417Z,30.27
2018-04-25T12:13:15.540Z,30.17
2018-04-25T12:15:46.559Z,30.02
2018-04-25T12:18:17.549Z,30.53
2018-04-25T12:20:48.577Z,30.70
2018-04-25T12:23:19.582Z,30.94
2018-04-25T12:25:50.590Z,30.85
2018-04-25T12:28:21.576Z,30.35
2018-04-25T12:30:52.553Z,29.96
2018-04-25T12:33:23.559Z,29.46
2018-04-25T12:35:54.589Z,29.41
2018-04-25T12:38:25.630Z,29.77
2018-04-25T12:40:56.667Z,29.90
2018-04-25T12:43:28.504Z,30.04
2018-04-25T12:45:59.487Z,30.46
2018-04-25T12:48:30.509Z,30.73
2018-04-25T12:51:01.512Z,31.19
2018-04-25T12:53:32.505Z,31.61
2018-04-25T12:56:03.512Z,31.31
2018-04-25T12:58:34.595Z,30.67
2018-04-25T13:01:05.651Z,30.49
2018-04-25T13:03:36.697Z,30.75
2018-04-25T13:06:07.781Z,31.03
2018-04-25T13:08:38.832Z,30.83
2018-04-25T13:11:09.867Z,30.82
2018-04-25T13:13:40.867Z,31.24
2018-04-25T13:16:11.887Z,31.46
2018-04-25T13:18:42.906Z,31.46
2018-04-25T13:21:13.943Z,31.88
2018-04-25T13:23:44.932Z,32.46
2018-04-25T13:26:15.941Z,32.41
2018-04-25T13:28:46.990Z,32.48
2018-04-25T13:31:18.059Z,32.08
2018-04-25T13:33:49.061Z,31.76
2018-04-25T13:36:20.157Z,31.05
2018-04-25T13:38:51.147Z,30.95
2018-04-25T13:41:22.196Z,31.59
2018-04-25T13:43:53.281Z,32.12
2018-04-25T13:46:24.237Z,32.45
2018-04-25T13:48:55.227Z,32.41
2018-04-25T13:51:26.267Z,32.47
2018-04-25T13:53:57.304Z,32.26
2018-04-25T13:56:28.291Z,32.02
2018-04-25T13:58:59.352Z,31.16
2018-04-25T14:01:30.453Z,30.29
2018-04-25T14:04:01.530Z,30.52
2018-04-25T14:06:32.513Z,30.96
2018-04-25T14:09:03.599Z,30.40
2018-04-25T14:11:34.681Z,30.22
2018-04-25T14:14:05.674Z,30.90
2018-04-25T14:16:36.714Z,31.43
2018-04-25T14:19:07.738Z,30.95
2018-04-25T14:21:39.109Z,31.19
2018-04-25T14:24:10.475Z,31.33
2018-04-25T14:26:41.548Z,31.08
2018-04-25T14:29:12.634Z,30.26
2018-04-25T14:31:43.609Z,29.68
2018-04-25T14:34:14.653Z,29.66
2018-04-25T14:36:45.690Z,30.12
2018-04-25T14:39:16.731Z,30.25
2018-04-25T14:41:47.707Z,29.88
2018-04-25T14:44:18.730Z,29.46
2018-04-25T14:46:56.595Z,29.58
2018-04-25T14:49:27.599Z,29.81
2018-04-25T14:51:58.634Z,29.80
2018-04-25T14:54:29.757Z,29.79
2018-04-25T14:57:00.785Z,29.57
2018-04-25T14:59:31.796Z,29.53
2018-04-25T15:02:02.807Z,29.44
2018-04-25T15:04:33.838Z,29.33
2018-04-25T15:07:04.885Z,29.30
2018-04-25T15:09:35.884Z,29.32
2018-04-25T15:12:06.966Z,29.35
2018-04-25T15:14:38.035Z,29.34
2018-04-25T15:17:09.027Z,29.32
2018-04-25T15:19:40.158Z,29.29
2018-04-25T15:22:11.191Z,29.16
2018-04-25T15:24:42.177Z,29.03
2018-04-25T15:27:13.161Z,28.96
2018-04-25T15:29:44.248Z,28.78
2018-04-25T15:32:15.260Z,28.61
2018-04-25T15:34:46.321Z,28.49
2018-04-25T15:37:17.315Z,28.18
2018-04-25T15:39:48.357Z,27.65
2018-04-25T15:42:19.360Z,27.12
2018-04-25T15:44:50.390Z,26.90
2018-04-25T15:47:21.368Z,27.17
2018-04-25T15:49:52.376Z,27.13
2018-04-25T15:52:23.372Z,26.79
2018-04-25T15:54:54.356Z,26.51
2018-04-25T15:57:25.451Z,26.47
2018-04-25T15:59:56.468Z,26.50
2018-04-25T16:02:27.504Z,26.63
2018-04-25T16:04:58.473Z,26.70
2018-04-25T16:07:29.510Z,26.82
2018-04-25T16:10:00.521Z,26.99
2018-04-25T16:12:31.597Z,27.07
2018-04-25T16:15:02.648Z,27.35
2018-04-25T16:17:33.688Z,27.48
2018-04-25T16:20:04.757Z,27.28
2018-04-25T16:22:35.773Z,27.10
2018-04-25T16:25:07.148Z,27.03
2018-04-25T16:27:38.198Z,26.94
2018-04-25T16:30:09.208Z,26.78
2018-04-25T16:32:40.383Z,26.65
2018-04-25T16:35:11.387Z,26.24
2018-04-25T16:37:42.457Z,25.80
2018-04-25T16:40:13.460Z,25.42
2018-04-25T16:42:44.485Z,25.23
2018-04-25T16:45:15.542Z,25.23
2018-04-25T16:47:46.557Z,25.25
2018-04-25T16:50:17.603Z,25.24
2018-04-25T16:52:48.562Z,25.29
2018-04-25T16:55:19.579Z,25.45
2018-04-25T16:57:50.667Z,25.58
2018-04-25T17:00:21.688Z,25.78
2018-04-25T17:02:52.698Z,25.73
2018-04-25T17:05:23.771Z,25.59
2018-04-25T17:07:54.822Z,25.36
2018-04-25T17:10:25.884Z,24.89
2018-04-25T17:12:56.907Z,24.43
2018-04-25T17:15:27.936Z,24.20
2018-04-25T17:17:58.967Z,24.06
2018-04-25T17:20:30.052Z,24.05
2018-04-25T17:23:01.175Z,24.12
2018-04-25T17:25:32.083Z,24.00
2018-04-25T17:28:03.100Z,23.87
2018-04-25T17:30:34.142Z,23.87
2018-04-25T17:33:05.456Z,23.78
2018-04-25T17:35:36.612Z,23.73
2018-04-25T17:38:07.672Z,23.78
2018-04-25T17:40:38.686Z,23.68
2018-04-25T17:43:09.729Z,23.48
2018-04-25T17:45:40.771Z,23.37
2018-04-25T17:48:11.799Z,23.30
2018-04-25T17:50:42.813Z,23.33
2018-04-25T17:53:13.841Z,23.37
2018-04-25T17:55:44.872Z,23.29
2018-04-25T17:58:15.942Z,23.18
2018-04-25T18:00:46.978Z,23.02
2018-04-25T18:03:18.141Z,22.79
2018-04-25T18:05:49.168Z,22.66
2018-04-25T18:08:20.212Z,22.53
2018-04-25T18:10:51.250Z,22.40
2018-04-25T18:13:23.126Z,22.27
2018-04-25T18:15:54.135Z,22.13
2018-04-25T18:18:25.145Z,21.99
2018-04-25T18:20:56.189Z,21.87
2018-04-25T18:23:27.289Z,21.75
2018-04-25T18:25:58.312Z,21.63
2018-04-25T18:28:29.324Z,21.53
2018-04-25T18:31:00.348Z,21.42
2018-04-25T18:33:31.400Z,21.34
2018-04-25T18:36:02.398Z,21.30
2018-04-25T18:38:33.440Z,21.27
2018-04-25T18:41:04.517Z,21.23
2018-04-25T18:43:35.812Z,21.18
2018-04-25T18:46:06.907Z,21.13
2018-04-25T18:48:37.947Z,21.17
2018-04-25T18:51:09.018Z,21.19
2018-04-25T18:53:40.056Z,21.19
2018-04-25T18:56:11.107Z,21.17
2018-04-25T18:58:42.130Z,21.19
2018-04-25T19:01:13.188Z,21.20
2018-04-25T19:03:44.300Z,21.21
2018-04-25T19:06:15.335Z,21.19
2018-04-25T19:08:46.745Z,21.15
2018-04-25T19:11:17.861Z,21.08
2018-04-25T19:13:49.292Z,21.03
2018-04-25T19:16:20.558Z,21.00
2018-04-25T19:18:51.535Z,21.02
2018-04-25T19:21:22.931Z,21.00
2018-04-25T19:23:54.021Z,20.91
2018-04-25T19:26:25.289Z,20.79
2018-04-25T19:28:56.308Z,20.70
2018-04-25T19:31:27.697Z,20.68
2018-04-25T19:33:59.077Z,20.64
2018-04-25T19:36:30.528Z,20.56
2018-04-25T19:39:01.560Z,20.53
2018-04-25T19:41:32.637Z,20.54
2018-04-25T19:44:03.642Z,20.52
2018-04-25T19:46:34.756Z,20.44
2018-04-25T19:49:05.807Z,20.32
2018-04-25T19:51:36.842Z,20.21
2018-04-25T19:54:07.873Z,20.13
2018-04-25T19:56:39.396Z,20.02
2018-04-25T19:59:10.467Z,19.88
2018-04-25T20:01:41.493Z,19.72
2018-04-25T20:04:12.529Z,19.59
2018-04-25T20:06:43.568Z,19.48
2018-04-25T20:09:14.572Z,19.39
2018-04-25T20:11:45.981Z,19.37
2018-04-25T20:14:18.349Z,19.35
2018-04-25T20:16:49.505Z,19.30
2018-04-25T20:19:20.864Z,19.28
2018-04-25T20:21:51.923Z,19.26
2018-04-25T20:24:23.241Z,19.24
2018-04-25T20:26:54.311Z,19.27
2018-04-25T20:29:25.346Z,19.28
2018-04-25T20:31:56.464Z,19.30
2018-04-25T20:34:27.449Z,19.36
2018-04-25T20:36:58.508Z,19.39
2018-04-25T20:39:29.512Z,19.36
2018-04-25T20:42:00.587Z,19.31
2018-04-25T20:44:31.633Z,19.31
2018-04-25T20:47:02.722Z,19.33
2018-04-25T20:49:33.774Z,19.26
2018-04-25T20:52:04.791Z,19.21
2018-04-25T20:54:35.791Z,19.10
2018-04-25T20:57:06.778Z,19.08
2018-04-25T20:59:37.816Z,19.05
2018-04-25T21:02:09.116Z,19.00
2018-04-25T21:04:40.469Z,18.97
2018-04-25T21:07:11.511Z,18.91
2018-04-25T21:09:42.525Z,18.79
2018-04-25T21:12:13.565Z,18.70
2018-04-25T21:14:44.596Z,18.62
2018-04-25T21:17:15.570Z,18.63
2018-04-25T21:19:46.585Z,18.70
2018-04-25T21:22:17.585Z,18.77
2018-04-25T21:24:48.717Z,18.86
2018-04-25T21:27:19.676Z,18.98
2018-04-25T21:29:50.699Z,19.03
2018-04-25T21:32:21.667Z,19.07
2018-04-25T21:34:52.641Z,19.07
2018-04-25T21:37:23.657Z,19.04
2018-04-25T21:39:54.642Z,19.06
2018-04-25T21:42:25.662Z,19.06
2018-04-25T21:44:56.668Z,19.07
2018-04-25T21:47:27.696Z,19.07
2018-04-25T21:49:58.742Z,19.08
2018-04-25T21:52:29.775Z,19.03
2018-04-25T21:55:00.722Z,19.00
2018-04-25T21:57:31.768Z,18.99
2018-04-25T22:00:02.812Z,18.99
2018-04-25T22:02:33.837Z,18.93
2018-04-25T22:05:04.846Z,18.91
2018-04-25T22:07:35.884Z,18.96
2018-04-25T22:10:06.902Z,18.96
2018-04-25T22:12:37.909Z,18.94
2018-04-25T22:15:08.895Z,18.86
2018-04-25T22:17:39.886Z,18.75
2018-04-25T22:20:10.955Z,18.71
2018-04-25T22:22:41.966Z,18.65
2018-04-25T22:25:13.020Z,18.64
2018-04-25T22:27:43.994Z,18.67
2018-04-25T22:30:15.038Z,18.67
2018-04-25T22:32:46.010Z,18.67
2018-04-25T22:35:17.007Z,18.68
2018-04-25T22:37:48.008Z,18.68
2018-04-25T22:40:19.056Z,18.57
2018-04-25T22:42:50.095Z,18.48
2018-04-25T22:45:21.107Z,18.37
2018-04-25T22:47:52.154Z,18.22
2018-04-25T22:50:23.196Z,18.12
2018-04-25T22:52:54.209Z,18.08
2018-04-25T22:55:25.204Z,18.02
2018-04-25T22:57:56.210Z,18.00
2018-04-25T23:00:27.195Z,17.96
2018-04-25T23:02:58.254Z,17.87
2018-04-25T23:05:29.275Z,17.82
2018-04-25T23:08:00.302Z,17.84
2018-04-25T23:10:31.279Z,17.86
2018-04-25T23:13:02.318Z,17.82
2018-04-25T23:15:33.393Z,17.70
2018-04-25T23:18:04.405Z,17.56
2018-04-25T23:20:35.403Z,17.41
2018-04-25T23:23:06.418Z,17.33
2018-04-25T23:25:37.421Z,17.32
2018-04-25T23:28:08.426Z,17.35
2018-04-25T23:30:39.436Z,17.37
2018-04-25T23:33:10.430Z,17.43
2018-04-25T23:35:41.415Z,17.47
2018-04-25T23:38:12.398Z,17.47
2018-04-25T23:40:43.394Z,17.52
2018-04-25T23:43:14.364Z,17.61
2018-04-25T23:45:45.428Z,17.65
2018-04-25T23:48:16.443Z,17.70
2018-04-25T23:50:47.455Z,17.75
2018-04-25T23:53:18.494Z,17.80
2018-04-25T23:55:49.458Z,17.84
2018-04-25T23:58:20.478Z,17.83
